sensor_id;sensor_type;location;lat;lon;timestamp;P1;durP1;ratioP1;P2;durP2;ratioP2
37231;SDS011;23125;48.156;15.954;2022-10-16T00:01:45;5.38;;;4.32;;
37231;SDS011;23125;48.156;15.954;2022-10-16T00:04:11;7.22;;;4.10;;
37231;SDS011;23125;48.156;15.954;2022-10-16T00:06:38;9.18;;;4.28;;
37231;SDS011;23125;48.156;15.954;2022-10-16T00:09:05;6.47;;;4.20;;
37231;SDS011;23125;48.156;15.954;2022-10-16T00:11:32;6.30;;;3.80;;
37231;SDS011;23125;48.156;15.954;2022-10-16T00:14:02;9.10;;;3.63;;
37231;SDS011;23125;48.156;15.954;2022-10-16T00:16:30;7.00;;;3.67;;
37231;SDS011;23125;48.156;15.954;2022-10-16T00:18:57;7.80;;;3.55;;
37231;SDS011;23125;48.156;15.954;2022-10-16T00:21:25;10.15;;;3.45;;
37231;SDS011;23125;48.156;15.954;2022-10-16T00:23:57;8.18;;;3.97;;
37231;SDS011;23125;48.156;15.954;2022-10-16T00:26:24;7.55;;;3.50;;
37231;SDS011;23125;48.156;15.954;2022-10-16T00:28:51;5.47;;;3.35;;
37231;SDS011;23125;48.156;15.954;2022-10-16T00:31:18;6.72;;;3.47;;
37231;SDS011;23125;48.156;15.954;2022-10-16T00:33:45;4.40;;;2.63;;
37231;SDS011;23125;48.156;15.954;2022-10-16T00:36:13;5.75;;;3.53;;
37231;SDS011;23125;48.156;15.954;2022-10-16T00:38:41;11.02;;;3.55;;
37231;SDS011;23125;48.156;15.954;2022-10-16T00:41:09;5.95;;;2.80;;
37231;SDS011;23125;48.156;15.954;2022-10-16T00:43:42;6.60;;;3.83;;
37231;SDS011;23125;48.156;15.954;2022-10-16T00:48:50;6.40;;;3.38;;
37231;SDS011;23125;48.156;15.954;2022-10-16T00:51:34;6.28;;;3.65;;
37231;SDS011;23125;48.156;15.954;2022-10-16T00:54:09;7.25;;;4.78;;
37231;SDS011;23125;48.156;15.954;2022-10-16T00:56:45;7.47;;;3.97;;
37231;SDS011;23125;48.156;15.954;2022-10-16T00:59:19;5.13;;;2.83;;
37231;SDS011;23125;48.156;15.954;2022-10-16T01:01:54;6.88;;;3.53;;
37231;SDS011;23125;48.156;15.954;2022-10-16T01:04:21;7.32;;;3.95;;
37231;SDS011;23125;48.156;15.954;2022-10-16T01:14:54;6.17;;;3.30;;
37231;SDS011;23125;48.156;15.954;2022-10-16T01:17:48;5.07;;;2.72;;
37231;SDS011;23125;48.156;15.954;2022-10-16T01:26:02;5.78;;;3.55;;
37231;SDS011;23125;48.156;15.954;2022-10-16T01:31:19;3.55;;;2.65;;
37231;SDS011;23125;48.156;15.954;2022-10-16T01:36:39;4.40;;;2.95;;
37231;SDS011;23125;48.156;15.954;2022-10-16T01:39:28;6.20;;;2.80;;
37231;SDS011;23125;48.156;15.954;2022-10-16T01:41:59;7.85;;;3.92;;
37231;SDS011;23125;48.156;15.954;2022-10-16T01:44:31;7.65;;;3.10;;
37231;SDS011;23125;48.156;15.954;2022-10-16T01:46:59;9.87;;;3.27;;
37231;SDS011;23125;48.156;15.954;2022-10-16T01:49:33;14.23;;;3.75;;
37231;SDS011;23125;48.156;15.954;2022-10-16T01:52:02;6.55;;;3.10;;
37231;SDS011;23125;48.156;15.954;2022-10-16T01:54:33;7.65;;;2.75;;
37231;SDS011;23125;48.156;15.954;2022-10-16T01:57:02;4.40;;;2.63;;
37231;SDS011;23125;48.156;15.954;2022-10-16T01:59:31;7.75;;;3.22;;
37231;SDS011;23125;48.156;15.954;2022-10-16T02:02:04;6.25;;;3.28;;
37231;SDS011;23125;48.156;15.954;2022-10-16T02:04:36;7.32;;;3.33;;
37231;SDS011;23125;48.156;15.954;2022-10-16T02:07:05;6.78;;;2.90;;
37231;SDS011;23125;48.156;15.954;2022-10-16T02:09:32;3.90;;;2.72;;
37231;SDS011;23125;48.156;15.954;2022-10-16T02:12:01;6.03;;;3.20;;
37231;SDS011;23125;48.156;15.954;2022-10-16T02:14:33;4.80;;;2.78;;
37231;SDS011;23125;48.156;15.954;2022-10-16T02:17:09;9.33;;;3.40;;
37231;SDS011;23125;48.156;15.954;2022-10-16T02:19:39;3.83;;;2.72;;
37231;SDS011;23125;48.156;15.954;2022-10-16T02:22:07;7.88;;;2.92;;
37231;SDS011;23125;48.156;15.954;2022-10-16T02:29:52;4.25;;;2.60;;
37231;SDS011;23125;48.156;15.954;2022-10-16T02:32:41;4.90;;;2.65;;
37231;SDS011;23125;48.156;15.954;2022-10-16T02:35:09;5.47;;;2.63;;
37231;SDS011;23125;48.156;15.954;2022-10-16T02:37:36;3.85;;;2.78;;
37231;SDS011;23125;48.156;15.954;2022-10-16T02:40:04;5.18;;;3.03;;
37231;SDS011;23125;48.156;15.954;2022-10-16T02:42:35;7.00;;;2.45;;
37231;SDS011;23125;48.156;15.954;2022-10-16T02:45:03;10.55;;;3.30;;
37231;SDS011;23125;48.156;15.954;2022-10-16T02:47:30;5.68;;;3.00;;
37231;SDS011;23125;48.156;15.954;2022-10-16T02:49:55;4.53;;;2.80;;
37231;SDS011;23125;48.156;15.954;2022-10-16T02:52:21;7.47;;;3.10;;
37231;SDS011;23125;48.156;15.954;2022-10-16T02:54:47;5.05;;;2.40;;
37231;SDS011;23125;48.156;15.954;2022-10-16T02:57:13;5.88;;;2.53;;
37231;SDS011;23125;48.156;15.954;2022-10-16T02:59:39;5.07;;;2.80;;
37231;SDS011;23125;48.156;15.954;2022-10-16T03:02:05;5.25;;;2.60;;
37231;SDS011;23125;48.156;15.954;2022-10-16T03:04:31;4.60;;;2.72;;
37231;SDS011;23125;48.156;15.954;2022-10-16T03:06:56;5.93;;;3.00;;
37231;SDS011;23125;48.156;15.954;2022-10-16T03:09:22;10.18;;;2.60;;
37231;SDS011;23125;48.156;15.954;2022-10-16T03:11:48;7.32;;;2.40;;
37231;SDS011;23125;48.156;15.954;2022-10-16T03:14:14;7.68;;;2.53;;
37231;SDS011;23125;48.156;15.954;2022-10-16T03:16:40;3.42;;;2.50;;
37231;SDS011;23125;48.156;15.954;2022-10-16T03:19:06;2.65;;;2.05;;
37231;SDS011;23125;48.156;15.954;2022-10-16T03:21:31;4.15;;;2.97;;
37231;SDS011;23125;48.156;15.954;2022-10-16T03:23:57;11.90;;;2.65;;
37231;SDS011;23125;48.156;15.954;2022-10-16T03:26:23;10.10;;;2.47;;
37231;SDS011;23125;48.156;15.954;2022-10-16T03:28:49;4.53;;;3.03;;
37231;SDS011;23125;48.156;15.954;2022-10-16T03:31:15;5.65;;;3.15;;
37231;SDS011;23125;48.156;15.954;2022-10-16T03:33:40;4.22;;;2.58;;
37231;SDS011;23125;48.156;15.954;2022-10-16T03:36:06;4.82;;;2.92;;
37231;SDS011;23125;48.156;15.954;2022-10-16T03:38:32;5.88;;;3.03;;
37231;SDS011;23125;48.156;15.954;2022-10-16T03:40:58;8.70;;;4.10;;
37231;SDS011;23125;48.156;15.954;2022-10-16T03:43:24;6.53;;;3.03;;
37231;SDS011;23125;48.156;15.954;2022-10-16T03:45:50;6.32;;;2.78;;
37231;SDS011;23125;48.156;15.954;2022-10-16T03:48:17;9.07;;;3.63;;
37231;SDS011;23125;48.156;15.954;2022-10-16T03:50:44;9.23;;;3.83;;
37231;SDS011;23125;48.156;15.954;2022-10-16T03:53:09;6.28;;;3.85;;
37231;SDS011;23125;48.156;15.954;2022-10-16T03:55:35;8.27;;;3.58;;
37231;SDS011;23125;48.156;15.954;2022-10-16T03:58:01;9.18;;;4.32;;
37231;SDS011;23125;48.156;15.954;2022-10-16T04:00:27;7.65;;;3.65;;
37231;SDS011;23125;48.156;15.954;2022-10-16T04:02:53;6.18;;;4.32;;
37231;SDS011;23125;48.156;15.954;2022-10-16T04:05:19;5.95;;;3.97;;
37231;SDS011;23125;48.156;15.954;2022-10-16T04:07:46;9.93;;;4.63;;
37231;SDS011;23125;48.156;15.954;2022-10-16T04:10:11;8.90;;;3.83;;
37231;SDS011;23125;48.156;15.954;2022-10-16T04:12:37;9.07;;;4.40;;
37231;SDS011;23125;48.156;15.954;2022-10-16T04:15:03;7.93;;;4.15;;
37231;SDS011;23125;48.156;15.954;2022-10-16T04:17:29;8.48;;;3.95;;
37231;SDS011;23125;48.156;15.954;2022-10-16T04:19:55;5.63;;;3.65;;
37231;SDS011;23125;48.156;15.954;2022-10-16T04:22:21;10.25;;;4.07;;
37231;SDS011;23125;48.156;15.954;2022-10-16T04:24:46;9.73;;;5.53;;
37231;SDS011;23125;48.156;15.954;2022-10-16T04:27:12;6.68;;;3.85;;
37231;SDS011;23125;48.156;15.954;2022-10-16T04:29:38;5.55;;;4.07;;
37231;SDS011;23125;48.156;15.954;2022-10-16T04:32:04;6.95;;;3.78;;
37231;SDS011;23125;48.156;15.954;2022-10-16T04:34:30;7.20;;;4.10;;
37231;SDS011;23125;48.156;15.954;2022-10-16T04:36:56;9.18;;;4.40;;
37231;SDS011;23125;48.156;15.954;2022-10-16T04:39:21;5.00;;;3.50;;
37231;SDS011;23125;48.156;15.954;2022-10-16T04:41:47;8.10;;;3.63;;
37231;SDS011;23125;48.156;15.954;2022-10-16T04:44:13;7.05;;;4.10;;
37231;SDS011;23125;48.156;15.954;2022-10-16T04:46:39;6.93;;;4.45;;
37231;SDS011;23125;48.156;15.954;2022-10-16T04:49:05;8.55;;;4.20;;
37231;SDS011;23125;48.156;15.954;2022-10-16T04:51:31;8.88;;;4.75;;
37231;SDS011;23125;48.156;15.954;2022-10-16T04:53:57;11.35;;;5.90;;
37231;SDS011;23125;48.156;15.954;2022-10-16T04:56:22;7.60;;;4.75;;
37231;SDS011;23125;48.156;15.954;2022-10-16T04:58:49;8.93;;;5.10;;
37231;SDS011;23125;48.156;15.954;2022-10-16T05:01:15;7.82;;;5.10;;
37231;SDS011;23125;48.156;15.954;2022-10-16T05:03:41;6.85;;;5.15;;
37231;SDS011;23125;48.156;15.954;2022-10-16T05:06:07;7.40;;;5.25;;
37231;SDS011;23125;48.156;15.954;2022-10-16T05:08:33;11.05;;;5.38;;
37231;SDS011;23125;48.156;15.954;2022-10-16T05:10:59;8.10;;;5.60;;
37231;SDS011;23125;48.156;15.954;2022-10-16T05:13:25;7.85;;;5.35;;
37231;SDS011;23125;48.156;15.954;2022-10-16T05:15:51;6.68;;;4.72;;
37231;SDS011;23125;48.156;15.954;2022-10-16T05:18:17;8.90;;;4.85;;
37231;SDS011;23125;48.156;15.954;2022-10-16T05:20:43;9.15;;;4.95;;
37231;SDS011;23125;48.156;15.954;2022-10-16T05:23:09;16.13;;;5.60;;
37231;SDS011;23125;48.156;15.954;2022-10-16T05:25:37;10.88;;;5.25;;
37231;SDS011;23125;48.156;15.954;2022-10-16T05:28:03;11.68;;;5.55;;
37231;SDS011;23125;48.156;15.954;2022-10-16T05:30:29;6.97;;;5.35;;
37231;SDS011;23125;48.156;15.954;2022-10-16T05:32:55;8.60;;;5.45;;
37231;SDS011;23125;48.156;15.954;2022-10-16T05:35:21;9.95;;;5.95;;
37231;SDS011;23125;48.156;15.954;2022-10-16T05:37:47;8.40;;;5.30;;
37231;SDS011;23125;48.156;15.954;2022-10-16T05:40:13;6.30;;;4.68;;
37231;SDS011;23125;48.156;15.954;2022-10-16T05:42:41;9.55;;;6.20;;
37231;SDS011;23125;48.156;15.954;2022-10-16T05:45:07;8.38;;;5.78;;
37231;SDS011;23125;48.156;15.954;2022-10-16T05:47:35;7.45;;;5.38;;
37231;SDS011;23125;48.156;15.954;2022-10-16T05:50:01;9.50;;;6.32;;
37231;SDS011;23125;48.156;15.954;2022-10-16T05:52:29;6.93;;;5.13;;
37231;SDS011;23125;48.156;15.954;2022-10-16T05:54:55;8.85;;;6.50;;
37231;SDS011;23125;48.156;15.954;2022-10-16T05:57:21;8.43;;;5.93;;
37231;SDS011;23125;48.156;15.954;2022-10-16T05:59:46;10.95;;;6.13;;
37231;SDS011;23125;48.156;15.954;2022-10-16T06:02:13;12.52;;;6.10;;
37231;SDS011;23125;48.156;15.954;2022-10-16T06:04:39;9.02;;;6.00;;
37231;SDS011;23125;48.156;15.954;2022-10-16T06:07:05;13.32;;;5.97;;
37231;SDS011;23125;48.156;15.954;2022-10-16T06:09:31;10.52;;;5.40;;
37231;SDS011;23125;48.156;15.954;2022-10-16T06:11:57;8.65;;;4.85;;
37231;SDS011;23125;48.156;15.954;2022-10-16T06:14:23;21.73;;;5.18;;
37231;SDS011;23125;48.156;15.954;2022-10-16T06:16:49;12.82;;;5.03;;
37231;SDS011;23125;48.156;15.954;2022-10-16T06:19:15;12.98;;;4.88;;
37231;SDS011;23125;48.156;15.954;2022-10-16T06:21:42;14.10;;;4.90;;
37231;SDS011;23125;48.156;15.954;2022-10-16T06:24:09;11.20;;;4.15;;
37231;SDS011;23125;48.156;15.954;2022-10-16T06:26:35;9.95;;;4.63;;
37231;SDS011;23125;48.156;15.954;2022-10-16T06:29:02;6.75;;;3.63;;
37231;SDS011;23125;48.156;15.954;2022-10-16T06:31:28;6.00;;;3.70;;
37231;SDS011;23125;48.156;15.954;2022-10-16T06:33:56;5.68;;;3.78;;
37231;SDS011;23125;48.156;15.954;2022-10-16T06:36:23;5.47;;;3.80;;
37231;SDS011;23125;48.156;15.954;2022-10-16T06:38:50;5.05;;;3.40;;
37231;SDS011;23125;48.156;15.954;2022-10-16T06:41:17;8.43;;;3.53;;
37231;SDS011;23125;48.156;15.954;2022-10-16T06:43:44;5.25;;;3.83;;
37231;SDS011;23125;48.156;15.954;2022-10-16T06:46:12;10.07;;;5.55;;
37231;SDS011;23125;48.156;15.954;2022-10-16T06:48:40;7.95;;;5.47;;
37231;SDS011;23125;48.156;15.954;2022-10-16T06:51:10;8.95;;;5.18;;
37231;SDS011;23125;48.156;15.954;2022-10-16T06:53:39;11.65;;;9.32;;
37231;SDS011;23125;48.156;15.954;2022-10-16T06:56:08;4.93;;;4.18;;
37231;SDS011;23125;48.156;15.954;2022-10-16T06:58:34;4.80;;;3.95;;
37231;SDS011;23125;48.156;15.954;2022-10-16T07:01:00;4.57;;;3.47;;
37231;SDS011;23125;48.156;15.954;2022-10-16T07:03:25;5.80;;;4.00;;
37231;SDS011;23125;48.156;15.954;2022-10-16T07:05:51;2.55;;;2.35;;
37231;SDS011;23125;48.156;15.954;2022-10-16T07:08:17;3.78;;;3.28;;
37231;SDS011;23125;48.156;15.954;2022-10-16T07:10:43;4.38;;;3.97;;
37231;SDS011;23125;48.156;15.954;2022-10-16T07:13:09;5.07;;;4.68;;
37231;SDS011;23125;48.156;15.954;2022-10-16T07:15:38;24.83;;;21.20;;
37231;SDS011;23125;48.156;15.954;2022-10-16T07:18:04;16.08;;;14.27;;
37231;SDS011;23125;48.156;15.954;2022-10-16T07:20:30;17.08;;;11.35;;
37231;SDS011;23125;48.156;15.954;2022-10-16T07:22:55;8.65;;;7.65;;
37231;SDS011;23125;48.156;15.954;2022-10-16T07:25:21;7.43;;;5.60;;
37231;SDS011;23125;48.156;15.954;2022-10-16T07:27:47;7.50;;;6.80;;
37231;SDS011;23125;48.156;15.954;2022-10-16T07:30:13;4.97;;;4.50;;
37231;SDS011;23125;48.156;15.954;2022-10-16T07:32:39;7.15;;;4.95;;
37231;SDS011;23125;48.156;15.954;2022-10-16T07:35:05;12.90;;;11.52;;
37231;SDS011;23125;48.156;15.954;2022-10-16T07:37:32;4.88;;;4.38;;
37231;SDS011;23125;48.156;15.954;2022-10-16T07:39:58;8.85;;;7.95;;
37231;SDS011;23125;48.156;15.954;2022-10-16T07:42:23;10.55;;;9.45;;
37231;SDS011;23125;48.156;15.954;2022-10-16T07:44:49;6.18;;;4.57;;
37231;SDS011;23125;48.156;15.954;2022-10-16T07:47:15;7.15;;;4.88;;
37231;SDS011;23125;48.156;15.954;2022-10-16T07:49:41;7.93;;;2.85;;
37231;SDS011;23125;48.156;15.954;2022-10-16T07:52:07;3.05;;;2.15;;
37231;SDS011;23125;48.156;15.954;2022-10-16T07:54:33;1.42;;;1.23;;
37231;SDS011;23125;48.156;15.954;2022-10-16T07:56:58;5.50;;;5.00;;
37231;SDS011;23125;48.156;15.954;2022-10-16T07:59:24;3.53;;;2.90;;
37231;SDS011;23125;48.156;15.954;2022-10-16T08:01:50;3.13;;;1.80;;
37231;SDS011;23125;48.156;15.954;2022-10-16T08:04:16;2.35;;;1.20;;
37231;SDS011;23125;48.156;15.954;2022-10-16T08:06:42;1.20;;;1.08;;
37231;SDS011;23125;48.156;15.954;2022-10-16T08:09:08;0.80;;;0.77;;
37231;SDS011;23125;48.156;15.954;2022-10-16T08:11:34;5.45;;;4.80;;
37231;SDS011;23125;48.156;15.954;2022-10-16T08:14:00;1.50;;;1.40;;
37231;SDS011;23125;48.156;15.954;2022-10-16T08:16:26;7.78;;;2.05;;
37231;SDS011;23125;48.156;15.954;2022-10-16T08:18:52;2.53;;;1.70;;
37231;SDS011;23125;48.156;15.954;2022-10-16T08:21:19;4.55;;;2.17;;
37231;SDS011;23125;48.156;15.954;2022-10-16T08:23:48;3.03;;;2.70;;
37231;SDS011;23125;48.156;15.954;2022-10-16T08:26:15;5.35;;;2.85;;
37231;SDS011;23125;48.156;15.954;2022-10-16T08:28:41;3.03;;;2.38;;
37231;SDS011;23125;48.156;15.954;2022-10-16T08:31:13;2.20;;;1.55;;
37231;SDS011;23125;48.156;15.954;2022-10-16T08:33:41;2.53;;;1.75;;
37231;SDS011;23125;48.156;15.954;2022-10-16T08:36:10;1.95;;;1.75;;
37231;SDS011;23125;48.156;15.954;2022-10-16T08:38:37;1.80;;;1.50;;
37231;SDS011;23125;48.156;15.954;2022-10-16T08:46:48;3.40;;;1.65;;
37231;SDS011;23125;48.156;15.954;2022-10-16T08:49:26;2.67;;;1.83;;
37231;SDS011;23125;48.156;15.954;2022-10-16T08:51:52;3.28;;;1.63;;
37231;SDS011;23125;48.156;15.954;2022-10-16T08:54:42;3.07;;;1.90;;
37231;SDS011;23125;48.156;15.954;2022-10-16T08:57:21;2.00;;;1.80;;
37231;SDS011;23125;48.156;15.954;2022-10-16T08:59:49;2.28;;;1.95;;
37231;SDS011;23125;48.156;15.954;2022-10-16T09:15:36;5.40;;;3.30;;
37231;SDS011;23125;48.156;15.954;2022-10-16T09:18:27;4.70;;;3.10;;
37231;SDS011;23125;48.156;15.954;2022-10-16T09:23:51;3.65;;;3.03;;
37231;SDS011;23125;48.156;15.954;2022-10-16T09:26:19;3.53;;;2.83;;
37231;SDS011;23125;48.156;15.954;2022-10-16T09:28:47;3.17;;;2.85;;
37231;SDS011;23125;48.156;15.954;2022-10-16T09:31:17;3.10;;;2.80;;
37231;SDS011;23125;48.156;15.954;2022-10-16T09:33:46;2.60;;;2.38;;
37231;SDS011;23125;48.156;15.954;2022-10-16T09:36:16;3.42;;;2.63;;
37231;SDS011;23125;48.156;15.954;2022-10-16T09:38:44;3.42;;;3.13;;
37231;SDS011;23125;48.156;15.954;2022-10-16T09:48:58;3.83;;;2.42;;
37231;SDS011;23125;48.156;15.954;2022-10-16T09:51:36;5.63;;;3.55;;
37231;SDS011;23125;48.156;15.954;2022-10-16T09:56:35;3.88;;;2.78;;
37231;SDS011;23125;48.156;15.954;2022-10-16T09:59:14;5.28;;;3.03;;
37231;SDS011;23125;48.156;15.954;2022-10-16T10:01:44;2.80;;;2.60;;
37231;SDS011;23125;48.156;15.954;2022-10-16T10:04:16;3.00;;;2.70;;
37231;SDS011;23125;48.156;15.954;2022-10-16T10:06:47;3.17;;;2.90;;
37231;SDS011;23125;48.156;15.954;2022-10-16T10:09:17;2.92;;;2.63;;
37231;SDS011;23125;48.156;15.954;2022-10-16T10:12:14;3.50;;;3.20;;
37231;SDS011;23125;48.156;15.954;2022-10-16T10:15:05;3.85;;;3.30;;
37231;SDS011;23125;48.156;15.954;2022-10-16T10:17:32;4.03;;;3.30;;
37231;SDS011;23125;48.156;15.954;2022-10-16T10:20:00;5.35;;;3.80;;
37231;SDS011;23125;48.156;15.954;2022-10-16T10:22:45;4.47;;;4.07;;
37231;SDS011;23125;48.156;15.954;2022-10-16T10:30:15;4.70;;;4.07;;
37231;SDS011;23125;48.156;15.954;2022-10-16T10:33:06;4.25;;;3.95;;
37231;SDS011;23125;48.156;15.954;2022-10-16T10:41:14;4.97;;;4.55;;
37231;SDS011;23125;48.156;15.954;2022-10-16T10:46:50;4.80;;;4.30;;
37231;SDS011;23125;48.156;15.954;2022-10-16T10:55:10;4.75;;;4.35;;
37231;SDS011;23125;48.156;15.954;2022-10-16T11:08:19;6.95;;;5.50;;
37231;SDS011;23125;48.156;15.954;2022-10-16T11:15:57;6.93;;;6.25;;
37231;SDS011;23125;48.156;15.954;2022-10-16T11:18:30;6.90;;;6.20;;
37231;SDS011;23125;48.156;15.954;2022-10-16T11:21:07;6.93;;;6.23;;
37231;SDS011;23125;48.156;15.954;2022-10-16T11:26:17;6.72;;;6.05;;
37231;SDS011;23125;48.156;15.954;2022-10-16T11:28:54;7.55;;;6.85;;
37231;SDS011;23125;48.156;15.954;2022-10-16T11:37:02;8.55;;;7.63;;
37231;SDS011;23125;48.156;15.954;2022-10-16T11:40:43;8.82;;;7.93;;
37231;SDS011;23125;48.156;15.954;2022-10-16T11:42:54;8.50;;;7.72;;
37231;SDS011;23125;48.156;15.954;2022-10-16T11:45:33;9.23;;;8.38;;
37231;SDS011;23125;48.156;15.954;2022-10-16T11:51:38;10.65;;;9.50;;
37231;SDS011;23125;48.156;15.954;2022-10-16T11:57:05;10.20;;;9.20;;
37231;SDS011;23125;48.156;15.954;2022-10-16T11:59:42;10.88;;;9.73;;
37231;SDS011;23125;48.156;15.954;2022-10-16T12:02:54;12.30;;;9.48;;
37231;SDS011;23125;48.156;15.954;2022-10-16T12:08:27;11.98;;;10.63;;
37231;SDS011;23125;48.156;15.954;2022-10-16T12:11:03;14.57;;;12.15;;
37231;SDS011;23125;48.156;15.954;2022-10-16T12:13:45;94.40;;;64.20;;
37231;SDS011;23125;48.156;15.954;2022-10-16T12:18:39;13.30;;;11.90;;
37231;SDS011;23125;48.156;15.954;2022-10-16T12:21:06;13.98;;;12.57;;
37231;SDS011;23125;48.156;15.954;2022-10-16T12:23:37;13.80;;;12.40;;
37231;SDS011;23125;48.156;15.954;2022-10-16T12:26:27;16.00;;;13.48;;
37231;SDS011;23125;48.156;15.954;2022-10-16T12:29:12;17.95;;;16.17;;
37231;SDS011;23125;48.156;15.954;2022-10-16T12:31:43;13.70;;;12.35;;
37231;SDS011;23125;48.156;15.954;2022-10-16T12:34:15;18.55;;;16.45;;
37231;SDS011;23125;48.156;15.954;2022-10-16T12:36:53;22.65;;;14.85;;
37231;SDS011;23125;48.156;15.954;2022-10-16T12:39:22;13.70;;;11.85;;
37231;SDS011;23125;48.156;15.954;2022-10-16T12:42:06;12.55;;;10.73;;
37231;SDS011;23125;48.156;15.954;2022-10-16T12:44:46;13.55;;;10.25;;
37231;SDS011;23125;48.156;15.954;2022-10-16T12:47:20;12.95;;;11.00;;
37231;SDS011;23125;48.156;15.954;2022-10-16T12:50:02;11.80;;;10.60;;
37231;SDS011;23125;48.156;15.954;2022-10-16T12:55:04;12.50;;;11.18;;
37231;SDS011;23125;48.156;15.954;2022-10-16T13:00:22;12.82;;;11.27;;
37231;SDS011;23125;48.156;15.954;2022-10-16T13:08:44;17.50;;;14.15;;
37231;SDS011;23125;48.156;15.954;2022-10-16T13:11:21;17.08;;;15.18;;
37231;SDS011;23125;48.156;15.954;2022-10-16T13:19:48;21.63;;;17.75;;
37231;SDS011;23125;48.156;15.954;2022-10-16T13:25:43;21.73;;;18.63;;
37231;SDS011;23125;48.156;15.954;2022-10-16T13:28:16;25.15;;;19.65;;
37231;SDS011;23125;48.156;15.954;2022-10-16T13:30:52;25.40;;;19.58;;
37231;SDS011;23125;48.156;15.954;2022-10-16T13:33:37;25.85;;;19.60;;
37231;SDS011;23125;48.156;15.954;2022-10-16T13:36:17;25.58;;;20.95;;
37231;SDS011;23125;48.156;15.954;2022-10-16T13:38:45;26.08;;;20.85;;
37231;SDS011;23125;48.156;15.954;2022-10-16T13:41:15;27.15;;;22.17;;
37231;SDS011;23125;48.156;15.954;2022-10-16T13:46:21;26.20;;;21.83;;
37231;SDS011;23125;48.156;15.954;2022-10-16T13:48:58;30.80;;;23.92;;
37231;SDS011;23125;48.156;15.954;2022-10-16T13:51:26;29.25;;;22.92;;
37231;SDS011;23125;48.156;15.954;2022-10-16T13:53:54;31.05;;;24.60;;
37231;SDS011;23125;48.156;15.954;2022-10-16T13:56:22;30.15;;;24.85;;
37231;SDS011;23125;48.156;15.954;2022-10-16T13:59:02;32.15;;;24.95;;
37231;SDS011;23125;48.156;15.954;2022-10-16T14:04:04;32.85;;;26.52;;
37231;SDS011;23125;48.156;15.954;2022-10-16T14:06:33;31.77;;;25.35;;
37231;SDS011;23125;48.156;15.954;2022-10-16T14:09:05;36.50;;;27.58;;
37231;SDS011;23125;48.156;15.954;2022-10-16T14:11:54;32.42;;;26.77;;
37231;SDS011;23125;48.156;15.954;2022-10-16T14:14:38;33.35;;;27.90;;
37231;SDS011;23125;48.156;15.954;2022-10-16T14:17:06;36.83;;;26.63;;
37231;SDS011;23125;48.156;15.954;2022-10-16T14:19:39;33.20;;;27.42;;
37231;SDS011;23125;48.156;15.954;2022-10-16T14:22:18;34.10;;;28.15;;
37231;SDS011;23125;48.156;15.954;2022-10-16T14:25:01;34.95;;;28.60;;
37231;SDS011;23125;48.156;15.954;2022-10-16T14:27:59;35.42;;;28.05;;
37231;SDS011;23125;48.156;15.954;2022-10-16T14:30:52;37.13;;;29.02;;
37231;SDS011;23125;48.156;15.954;2022-10-16T14:33:20;38.10;;;28.98;;
37231;SDS011;23125;48.156;15.954;2022-10-16T14:36:24;36.47;;;29.42;;
37231;SDS011;23125;48.156;15.954;2022-10-16T14:41:41;35.28;;;28.33;;
37231;SDS011;23125;48.156;15.954;2022-10-16T14:44:11;35.08;;;28.40;;
37231;SDS011;23125;48.156;15.954;2022-10-16T14:46:38;36.08;;;29.02;;
37231;SDS011;23125;48.156;15.954;2022-10-16T14:51:36;37.58;;;29.20;;
37231;SDS011;23125;48.156;15.954;2022-10-16T14:54:03;39.08;;;29.50;;
37231;SDS011;23125;48.156;15.954;2022-10-16T14:56:30;38.50;;;29.65;;
37231;SDS011;23125;48.156;15.954;2022-10-16T14:59:07;39.50;;;29.15;;
37231;SDS011;23125;48.156;15.954;2022-10-16T15:01:39;34.97;;;28.50;;
37231;SDS011;23125;48.156;15.954;2022-10-16T15:04:07;33.35;;;27.65;;
37231;SDS011;23125;48.156;15.954;2022-10-16T15:06:36;39.13;;;28.58;;
37231;SDS011;23125;48.156;15.954;2022-10-16T15:09:03;34.67;;;27.80;;
37231;SDS011;23125;48.156;15.954;2022-10-16T15:11:29;36.70;;;27.88;;
37231;SDS011;23125;48.156;15.954;2022-10-16T15:13:57;35.03;;;28.60;;
37231;SDS011;23125;48.156;15.954;2022-10-16T15:16:23;37.83;;;29.92;;
37231;SDS011;23125;48.156;15.954;2022-10-16T15:18:49;35.25;;;29.20;;
37231;SDS011;23125;48.156;15.954;2022-10-16T15:21:33;34.53;;;28.05;;
37231;SDS011;23125;48.156;15.954;2022-10-16T15:23:59;33.38;;;27.25;;
37231;SDS011;23125;48.156;15.954;2022-10-16T15:26:26;36.10;;;28.60;;
37231;SDS011;23125;48.156;15.954;2022-10-16T15:28:53;34.92;;;27.63;;
37231;SDS011;23125;48.156;15.954;2022-10-16T15:31:20;35.03;;;26.17;;
37231;SDS011;23125;48.156;15.954;2022-10-16T15:33:49;35.42;;;27.35;;
37231;SDS011;23125;48.156;15.954;2022-10-16T15:36:24;33.33;;;26.77;;
37231;SDS011;23125;48.156;15.954;2022-10-16T15:38:53;35.78;;;27.60;;
37231;SDS011;23125;48.156;15.954;2022-10-16T15:41:20;34.88;;;27.58;;
37231;SDS011;23125;48.156;15.954;2022-10-16T15:43:47;38.50;;;27.42;;
37231;SDS011;23125;48.156;15.954;2022-10-16T15:46:17;38.65;;;26.63;;
37231;SDS011;23125;48.156;15.954;2022-10-16T15:48:45;32.15;;;26.92;;
37231;SDS011;23125;48.156;15.954;2022-10-16T15:51:12;33.20;;;26.13;;
37231;SDS011;23125;48.156;15.954;2022-10-16T15:53:38;34.03;;;26.60;;
37231;SDS011;23125;48.156;15.954;2022-10-16T15:56:04;35.92;;;27.27;;
37231;SDS011;23125;48.156;15.954;2022-10-16T15:58:31;32.85;;;25.92;;
37231;SDS011;23125;48.156;15.954;2022-10-16T16:00:58;37.88;;;27.80;;
37231;SDS011;23125;48.156;15.954;2022-10-16T16:03:29;34.55;;;26.98;;
37231;SDS011;23125;48.156;15.954;2022-10-16T16:05:56;37.08;;;26.50;;
37231;SDS011;23125;48.156;15.954;2022-10-16T16:08:22;33.60;;;26.35;;
37231;SDS011;23125;48.156;15.954;2022-10-16T16:11:00;35.22;;;26.48;;
37231;SDS011;23125;48.156;15.954;2022-10-16T16:13:28;32.83;;;26.15;;
37231;SDS011;23125;48.156;15.954;2022-10-16T16:15:54;32.25;;;26.08;;
37231;SDS011;23125;48.156;15.954;2022-10-16T16:18:20;32.60;;;26.05;;
37231;SDS011;23125;48.156;15.954;2022-10-16T16:20:47;43.22;;;35.63;;
37231;SDS011;23125;48.156;15.954;2022-10-16T16:23:13;35.45;;;28.88;;
37231;SDS011;23125;48.156;15.954;2022-10-16T16:25:39;32.60;;;25.17;;
37231;SDS011;23125;48.156;15.954;2022-10-16T16:28:05;39.28;;;25.88;;
37231;SDS011;23125;48.156;15.954;2022-10-16T16:30:32;36.05;;;26.05;;
37231;SDS011;23125;48.156;15.954;2022-10-16T16:32:58;35.10;;;25.27;;
37231;SDS011;23125;48.156;15.954;2022-10-16T16:35:24;36.72;;;26.65;;
37231;SDS011;23125;48.156;15.954;2022-10-16T16:37:49;34.00;;;25.45;;
37231;SDS011;23125;48.156;15.954;2022-10-16T16:40:15;33.45;;;25.77;;
37231;SDS011;23125;48.156;15.954;2022-10-16T16:42:41;35.38;;;26.75;;
37231;SDS011;23125;48.156;15.954;2022-10-16T16:45:07;32.38;;;24.60;;
37231;SDS011;23125;48.156;15.954;2022-10-16T16:47:34;35.95;;;26.83;;
37231;SDS011;23125;48.156;15.954;2022-10-16T16:50:00;35.35;;;26.50;;
37231;SDS011;23125;48.156;15.954;2022-10-16T16:52:29;39.97;;;27.98;;
37231;SDS011;23125;48.156;15.954;2022-10-16T16:54:55;41.17;;;28.35;;
37231;SDS011;23125;48.156;15.954;2022-10-16T16:57:21;37.05;;;27.13;;
37231;SDS011;23125;48.156;15.954;2022-10-16T16:59:49;41.60;;;28.65;;
37231;SDS011;23125;48.156;15.954;2022-10-16T17:02:16;62.92;;;33.40;;
37231;SDS011;23125;48.156;15.954;2022-10-16T17:04:42;67.47;;;36.25;;
37231;SDS011;23125;48.156;15.954;2022-10-16T17:07:08;47.25;;;30.38;;